Weather at Hopedale Industrial Park Airport

Public forecast

Using degrees Fahrenheit for public forecast. Weather courtesy of forecast.io.

Closest aviation weather report (METAR) to Hopedale Industrial Park Airport

Report is more than 6 hours old.

Closest report is North Central State Airport, 11.2 nm (20.7 km) S.

2022/11/14 14:56 (retrieved 2 years ago)

KSFZ 141456Z AUTO 30011G17KT 10SM CLR 03/M06 A3022 RMK AO2 SLP238 T00281061 51023

Closest aviation forecast (TAF) to Hopedale Industrial Park Airport

Forecast is more than 12 hours old.

Closest forecast is Worcester Regional Airport, 18.9 nm (35.0 km) WNW.

2023/02/22 18:40 (retrieved 1 year ago)

TAF KORH 221738Z 2218/2318 27009KT P6SM OVC120 FM222300 22003KT 4SM -SN OVC020 FM230000 00000KT 4SM -SN BR OVC015 FM230400 14004KT 1SM -PL BR OVC008 FM230800 08007KT 1SM -PL BR OVC003 FM231700 05010G17KT 3SM BR VCSH OVC008